createdAt,value
2018-05-17T00:00:21.739Z,77.27
2018-05-17T00:02:50.074Z,77.02
2018-05-17T00:05:20.595Z,77.10
2018-05-17T00:07:49.323Z,77.53
2018-05-17T00:10:17.619Z,78.01
2018-05-17T00:12:46.084Z,78.42
2018-05-17T00:15:14.412Z,78.33
2018-05-17T00:17:42.708Z,77.71
2018-05-17T00:20:12.581Z,77.69
2018-05-17T00:22:42.551Z,77.75
2018-05-17T00:25:11.668Z,77.44
2018-05-17T00:27:41.477Z,78.27
2018-05-17T00:30:10.570Z,78.24
2018-05-17T00:32:39.838Z,78.47
2018-05-17T00:35:08.730Z,78.37
2018-05-17T00:37:37.701Z,78.25
2018-05-17T00:40:06.075Z,78.00
2018-05-17T00:42:34.948Z,78.72
2018-05-17T00:45:03.257Z,78.94
2018-05-17T00:47:32.157Z,78.65
2018-05-17T00:50:01.294Z,78.35
2018-05-17T00:52:30.131Z,78.67
2018-05-17T00:54:58.502Z,78.78
2018-05-17T00:57:27.695Z,78.62
2018-05-17T00:59:55.997Z,78.29
2018-05-17T01:02:25.218Z,79.02
2018-05-17T01:04:54.274Z,79.08
2018-05-17T01:07:25.259Z,79.06
2018-05-17T01:09:54.956Z,79.40
2018-05-17T01:12:23.776Z,79.58
2018-05-17T01:14:52.701Z,78.91
2018-05-17T01:17:21.411Z,79.07
2018-05-17T01:19:49.753Z,79.04
2018-05-17T01:22:19.138Z,79.04
2018-05-17T01:24:48.315Z,79.12
2018-05-17T01:27:16.633Z,79.48
2018-05-17T01:29:45.405Z,78.79
2018-05-17T01:32:13.874Z,78.81
2018-05-17T01:34:42.937Z,79.31
2018-05-17T01:37:29.467Z,79.00
2018-05-17T01:39:59.553Z,79.00
2018-05-17T01:42:28.672Z,79.30
2018-05-17T01:44:57.846Z,79.19
2018-05-17T01:47:26.153Z,79.14
2018-05-17T01:49:54.475Z,79.21
2018-05-17T01:52:22.902Z,78.89
2018-05-17T01:54:51.197Z,79.21
2018-05-17T01:57:20.260Z,79.65
2018-05-17T01:59:48.913Z,80.03
2018-05-17T02:02:17.263Z,79.80
2018-05-17T02:04:46.445Z,79.47
2018-05-17T02:07:14.780Z,79.40
2018-05-17T02:09:43.950Z,79.54
2018-05-17T02:12:13.512Z,79.40
2018-05-17T02:14:41.812Z,79.31
2018-05-17T02:17:10.641Z,79.37
2018-05-17T02:19:39.437Z,79.25
2018-05-17T02:22:07.735Z,79.08
2018-05-17T02:24:36.939Z,79.58
2018-05-17T02:27:06.674Z,78.71
2018-05-17T02:29:35.420Z,79.09
2018-05-17T02:32:04.106Z,79.19
2018-05-17T02:34:32.397Z,79.14
2018-05-17T02:37:01.673Z,79.32
2018-05-17T02:39:30.022Z,79.08
2018-05-17T02:41:59.125Z,79.37
2018-05-17T02:44:28.369Z,79.51
2018-05-17T02:46:56.784Z,79.26
2018-05-17T02:49:26.047Z,78.84
2018-05-17T02:51:54.460Z,79.44
2018-05-17T02:54:22.898Z,79.11
2018-05-17T02:56:51.928Z,78.82
2018-05-17T02:59:20.254Z,78.77
2018-05-17T03:01:49.519Z,78.93
2018-05-17T03:04:17.839Z,78.70
2018-05-17T03:06:47.618Z,78.57
2018-05-17T03:09:15.941Z,78.41
2018-05-17T03:11:44.242Z,78.58
2018-05-17T03:14:13.052Z,78.08
2018-05-17T03:16:41.435Z,78.18
2018-05-17T03:19:10.735Z,78.14
2018-05-17T03:21:39.076Z,78.31
2018-05-17T03:24:07.902Z,78.12
2018-05-17T03:26:36.212Z,78.23
2018-05-17T03:29:07.479Z,78.28
2018-05-17T03:31:35.841Z,78.31
2018-05-17T03:34:05.114Z,78.20
2018-05-17T03:36:33.991Z,78.18
2018-05-17T03:39:02.324Z,78.25
2018-05-17T03:41:31.389Z,78.25
2018-05-17T03:44:01.255Z,78.28
2018-05-17T03:46:30.089Z,78.13
2018-05-17T03:48:59.937Z,77.91
2018-05-17T03:51:29.018Z,77.78
2018-05-17T03:53:58.054Z,77.81
2018-05-17T03:56:27.330Z,77.46
2018-05-17T03:58:57.129Z,77.68
2018-05-17T04:01:44.066Z,77.98
2018-05-17T04:04:30.845Z,77.71
2018-05-17T04:07:01.782Z,77.74
2018-05-17T04:09:30.142Z,77.60
2018-05-17T04:11:58.450Z,77.39
2018-05-17T04:14:26.939Z,76.96
2018-05-17T04:16:55.285Z,76.93
2018-05-17T04:19:26.417Z,76.80
2018-05-17T04:21:55.642Z,76.92
2018-05-17T04:24:25.494Z,77.11
2018-05-17T04:26:54.374Z,77.39
2018-05-17T04:29:24.581Z,77.29
2018-05-17T04:31:52.920Z,77.00
2018-05-17T04:34:21.780Z,77.30
2018-05-17T04:36:50.749Z,76.58
2018-05-17T04:39:19.772Z,76.27
2018-05-17T04:41:48.096Z,76.05
2018-05-17T04:44:16.387Z,76.31
2018-05-17T04:46:44.793Z,76.04
2018-05-17T04:49:14.055Z,75.42
2018-05-17T04:51:42.350Z,75.69
2018-05-17T04:54:12.022Z,75.15
2018-05-17T04:56:40.929Z,75.47
2018-05-17T04:59:09.220Z,75.26
2018-05-17T05:01:38.226Z,75.16
2018-05-17T05:04:07.342Z,74.93
2018-05-17T05:06:36.411Z,75.21
2018-05-17T05:09:06.000Z,74.62
2018-05-17T05:11:35.600Z,74.34
2018-05-17T05:14:03.914Z,74.08
2018-05-17T05:16:33.031Z,74.19
2018-05-17T05:19:02.143Z,74.27
2018-05-17T05:21:30.461Z,74.36
2018-05-17T05:23:58.880Z,74.74
2018-05-17T05:26:27.190Z,74.64
2018-05-17T05:28:55.493Z,74.71
2018-05-17T05:31:24.442Z,74.04
2018-05-17T05:33:53.513Z,74.18
2018-05-17T05:36:22.560Z,74.17
2018-05-17T05:38:50.855Z,73.85
2018-05-17T05:41:19.148Z,73.93
2018-05-17T05:43:48.662Z,73.94
2018-05-17T05:46:17.600Z,73.93
2018-05-17T05:48:46.730Z,73.90
2018-05-17T05:51:15.271Z,74.00
2018-05-17T05:53:44.268Z,73.59
2018-05-17T05:56:13.372Z,73.79
2018-05-17T05:58:42.539Z,73.64
2018-05-17T06:01:11.747Z,73.27
2018-05-17T06:03:40.885Z,73.22
2018-05-17T06:06:09.631Z,73.44
2018-05-17T06:08:37.959Z,73.20
2018-05-17T06:11:06.293Z,72.87
2018-05-17T06:13:36.009Z,73.07
2018-05-17T06:16:05.121Z,72.75
2018-05-17T06:18:35.277Z,72.32
2018-05-17T06:21:04.320Z,72.41
2018-05-17T06:23:33.905Z,71.89
2018-05-17T06:26:02.240Z,72.15
2018-05-17T06:28:32.775Z,72.09
2018-05-17T06:31:02.339Z,71.51
2018-05-17T06:33:31.078Z,71.26
2018-05-17T06:35:59.665Z,70.42
2018-05-17T06:38:28.077Z,71.13
2018-05-17T06:40:56.521Z,71.06
2018-05-17T06:43:25.800Z,71.87
2018-05-17T06:45:55.815Z,71.57
2018-05-17T06:48:24.864Z,71.48
2018-05-17T06:50:53.169Z,71.29
2018-05-17T06:53:21.881Z,70.92
2018-05-17T06:55:51.046Z,70.41
2018-05-17T06:58:19.346Z,70.49
2018-05-17T07:00:48.540Z,70.99
2018-05-17T07:03:18.475Z,70.28
2018-05-17T07:05:48.976Z,69.61
2018-05-17T07:08:18.352Z,69.26
2018-05-17T07:10:48.306Z,69.80
2018-05-17T07:13:17.406Z,69.68
2018-05-17T07:15:46.895Z,69.28
2018-05-17T07:18:15.447Z,70.12
2018-05-17T07:20:43.757Z,69.76
2018-05-17T07:23:12.045Z,69.00
2018-05-17T07:25:41.125Z,69.21
2018-05-17T07:28:09.510Z,68.82
2018-05-17T07:30:37.832Z,69.18
2018-05-17T07:33:06.222Z,69.67
2018-05-17T07:35:34.511Z,68.54
2018-05-17T07:38:03.226Z,68.09
2018-05-17T07:40:32.315Z,69.25
2018-05-17T07:43:01.233Z,68.43
2018-05-17T07:45:30.299Z,67.94
2018-05-17T07:48:00.010Z,67.80
2018-05-17T07:50:28.730Z,67.61
2018-05-17T07:52:57.817Z,68.00
2018-05-17T07:55:26.118Z,67.87
2018-05-17T07:57:55.675Z,67.67
2018-05-17T08:00:24.677Z,68.35
2018-05-17T08:02:52.986Z,68.03
2018-05-17T08:05:22.046Z,67.27
2018-05-17T08:07:51.028Z,67.01
2018-05-17T08:10:19.356Z,67.18
2018-05-17T08:12:49.196Z,65.88
2018-05-17T08:15:17.614Z,66.43
2018-05-17T08:17:47.683Z,66.00
2018-05-17T08:20:16.781Z,66.58
2018-05-17T08:22:47.236Z,66.35
2018-05-17T08:25:15.551Z,66.59
2018-05-17T08:27:44.034Z,66.00
2018-05-17T08:30:13.490Z,65.65
2018-05-17T08:32:42.105Z,65.76
2018-05-17T08:35:11.116Z,66.02
2018-05-17T08:37:40.938Z,66.21
2018-05-17T08:40:09.235Z,64.95
2018-05-17T08:42:38.570Z,65.45
2018-05-17T08:45:08.539Z,65.61
2018-05-17T08:47:37.190Z,65.90
2018-05-17T08:50:06.192Z,64.54
2018-05-17T08:52:34.538Z,65.09
2018-05-17T08:55:03.279Z,65.18
2018-05-17T08:57:33.729Z,65.72
2018-05-17T09:00:02.029Z,64.93
2018-05-17T09:02:32.486Z,64.65
2018-05-17T09:05:00.774Z,64.80
2018-05-17T09:07:29.095Z,63.62
2018-05-17T09:09:58.193Z,64.85
2018-05-17T09:12:27.295Z,64.72
2018-05-17T09:14:57.133Z,64.05
2018-05-17T09:17:26.274Z,64.20
2018-05-17T09:19:57.680Z,63.62
2018-05-17T09:22:27.942Z,63.03
2018-05-17T09:24:56.249Z,64.29
2018-05-17T09:27:25.435Z,62.96
2018-05-17T09:29:53.759Z,62.67
2018-05-17T09:32:22.057Z,63.25
2018-05-17T09:34:51.150Z,63.02
2018-05-17T09:37:19.574Z,62.58
2018-05-17T09:39:48.676Z,62.02
2018-05-17T09:42:17.025Z,62.23
2018-05-17T09:44:46.133Z,61.72
2018-05-17T09:47:14.707Z,61.59
2018-05-17T09:49:43.252Z,62.61
2018-05-17T09:52:12.898Z,61.85
2018-05-17T09:54:41.312Z,62.07
2018-05-17T09:57:11.699Z,62.33
2018-05-17T09:59:40.038Z,62.76
2018-05-17T10:02:09.422Z,62.82
2018-05-17T10:04:40.377Z,62.33
2018-05-17T10:07:10.277Z,63.16
2018-05-17T10:09:40.289Z,62.91
2018-05-17T10:12:09.298Z,62.26
2018-05-17T10:14:38.369Z,62.00
2018-05-17T10:17:07.819Z,62.25
2018-05-17T10:19:36.865Z,62.71
2018-05-17T10:22:05.304Z,63.20
2018-05-17T10:24:34.039Z,63.30
2018-05-17T10:27:02.369Z,63.13
2018-05-17T10:29:30.739Z,62.95
2018-05-17T10:31:59.988Z,62.82
2018-05-17T10:34:29.146Z,63.90
2018-05-17T10:36:57.467Z,65.04
2018-05-17T10:39:27.501Z,64.70
2018-05-17T10:41:56.689Z,64.60
2018-05-17T10:44:26.434Z,64.26
2018-05-17T10:46:55.368Z,62.99
2018-05-17T10:49:24.235Z,62.79
2018-05-17T10:51:52.869Z,61.43
2018-05-17T10:54:21.304Z,61.14
2018-05-17T10:56:50.142Z,62.11
2018-05-17T10:59:18.532Z,63.41
2018-05-17T11:01:47.752Z,63.50
2018-05-17T11:04:16.952Z,63.55
2018-05-17T11:06:46.114Z,63.88
2018-05-17T11:09:14.466Z,64.31
2018-05-17T11:11:42.764Z,64.94
2018-05-17T11:14:11.092Z,65.24
2018-05-17T11:16:40.681Z,65.36
2018-05-17T11:19:09.040Z,65.18
2018-05-17T11:21:37.451Z,64.63
2018-05-17T11:24:06.590Z,64.79
2018-05-17T11:26:35.794Z,64.47
2018-05-17T11:29:04.675Z,65.16
2018-05-17T11:31:33.143Z,64.80
2018-05-17T11:34:03.020Z,63.65
2018-05-17T11:36:31.416Z,64.47
2018-05-17T11:38:59.712Z,64.85
2018-05-17T11:41:28.802Z,64.48
2018-05-17T11:43:59.649Z,66.93
2018-05-17T11:49:26.034Z,68.19
2018-05-17T11:51:54.846Z,68.66
2018-05-17T11:54:25.317Z,69.05
2018-05-17T11:56:55.280Z,69.09
2018-05-17T11:59:23.769Z,68.94
2018-05-17T12:01:52.230Z,69.31
2018-05-17T12:04:20.763Z,69.36
2018-05-17T12:06:49.381Z,69.38
2018-05-17T12:15:12.758Z,71.33
2018-05-17T12:17:41.147Z,71.30
2018-05-17T12:20:10.230Z,71.24
2018-05-17T12:22:41.651Z,70.61
2018-05-17T12:25:10.810Z,71.05
2018-05-17T12:27:39.694Z,71.72
2018-05-17T12:30:09.281Z,72.33
2018-05-17T12:32:38.658Z,71.60
2018-05-17T12:35:07.791Z,72.34
2018-05-17T12:37:37.568Z,71.99
2018-05-17T12:40:06.296Z,72.70
2018-05-17T12:42:36.681Z,72.99
2018-05-17T12:45:05.140Z,72.93
2018-05-17T12:47:33.522Z,71.99
2018-05-17T12:50:02.030Z,72.10
2018-05-17T12:52:30.381Z,72.12
2018-05-17T12:54:58.681Z,72.73
2018-05-17T12:57:27.270Z,73.14
2018-05-17T12:59:57.121Z,73.10
2018-05-17T13:02:25.471Z,73.36
2018-05-17T13:04:54.330Z,73.11
2018-05-17T13:07:23.442Z,73.15
2018-05-17T13:09:52.777Z,73.62
2018-05-17T13:12:22.086Z,73.93
2018-05-17T13:14:51.175Z,73.64
2018-05-17T13:17:19.539Z,74.05
2018-05-17T13:19:49.365Z,73.85
2018-05-17T13:22:18.434Z,74.05
2018-05-17T13:24:46.805Z,74.22
2018-05-17T13:27:17.405Z,74.64
2018-05-17T13:29:46.536Z,75.06
2018-05-17T13:32:14.838Z,74.52
2018-05-17T13:34:43.126Z,74.35
2018-05-17T13:37:12.303Z,73.77
2018-05-17T13:39:41.450Z,73.67
2018-05-17T13:42:11.767Z,74.78
2018-05-17T13:44:41.864Z,74.77
2018-05-17T13:47:10.726Z,74.98
2018-05-17T13:49:40.411Z,75.39
2018-05-17T13:52:09.029Z,74.55
2018-05-17T13:54:38.228Z,73.44
2018-05-17T13:57:06.869Z,74.21
2018-05-17T13:59:35.952Z,74.30
2018-05-17T14:02:04.249Z,73.80
2018-05-17T14:04:34.161Z,73.30
2018-05-17T14:07:03.304Z,72.56
2018-05-17T14:09:31.625Z,73.68
2018-05-17T14:12:01.432Z,73.94
2018-05-17T14:14:30.818Z,73.52
2018-05-17T14:16:59.186Z,74.08
2018-05-17T14:19:28.832Z,73.03
2018-05-17T14:21:58.412Z,73.54
2018-05-17T14:24:28.214Z,74.50
2018-05-17T14:26:57.451Z,75.12
2018-05-17T14:29:25.810Z,75.34
2018-05-17T14:31:54.942Z,74.99
2018-05-17T14:34:24.307Z,75.19
2018-05-17T14:36:53.522Z,75.09
2018-05-17T14:39:22.626Z,75.25
2018-05-17T14:41:53.095Z,75.65
2018-05-17T14:44:21.885Z,75.37
2018-05-17T14:46:51.039Z,75.18
2018-05-17T14:49:21.809Z,75.35
2018-05-17T14:51:50.639Z,75.35
2018-05-17T14:54:20.018Z,75.44
2018-05-17T14:56:49.763Z,75.74
2018-05-17T14:59:19.488Z,75.81
2018-05-17T15:01:47.793Z,76.13
2018-05-17T15:04:17.435Z,75.57
2018-05-17T15:06:45.840Z,76.03
2018-05-17T15:09:14.778Z,75.99
2018-05-17T15:11:45.138Z,76.21
2018-05-17T15:14:14.723Z,76.21
2018-05-17T15:16:43.065Z,76.32
2018-05-17T15:19:11.479Z,76.50
2018-05-17T15:21:40.609Z,76.50
2018-05-17T15:24:10.277Z,76.04
2018-05-17T15:26:39.394Z,76.51
2018-05-17T15:29:07.903Z,76.74
2018-05-17T15:31:36.632Z,77.15
2018-05-17T15:34:06.352Z,77.28
2018-05-17T15:36:36.301Z,76.91
2018-05-17T15:39:04.623Z,76.91
2018-05-17T15:41:33.006Z,76.87
2018-05-17T15:44:02.962Z,76.57
2018-05-17T15:46:31.404Z,75.91
2018-05-17T15:49:00.759Z,76.45
2018-05-17T15:51:29.445Z,76.72
2018-05-17T15:53:57.791Z,77.04
2018-05-17T15:56:27.346Z,77.23
2018-05-17T15:58:56.493Z,77.23
2018-05-17T16:01:26.411Z,77.78
2018-05-17T16:03:57.317Z,77.94
2018-05-17T16:06:25.790Z,78.28
2018-05-17T16:08:54.968Z,78.55
2018-05-17T16:11:23.403Z,78.25
2018-05-17T16:13:52.719Z,79.17
2018-05-17T16:16:23.098Z,78.86
2018-05-17T16:18:52.241Z,78.95
2018-05-17T16:21:21.302Z,78.56
2018-05-17T16:23:50.236Z,79.01
2018-05-17T16:26:19.088Z,78.69
2018-05-17T16:28:48.889Z,78.79
2018-05-17T16:31:17.366Z,79.34
2018-05-17T16:33:49.076Z,80.27
2018-05-17T16:36:18.998Z,80.19
2018-05-17T16:38:48.598Z,80.03
2018-05-17T16:41:18.024Z,79.93
2018-05-17T16:43:46.576Z,80.09
2018-05-17T16:46:15.710Z,79.89
2018-05-17T16:48:44.990Z,80.10
2018-05-17T16:51:13.890Z,80.99
2018-05-17T16:53:43.126Z,81.15
2018-05-17T16:56:11.852Z,81.44
2018-05-17T16:58:40.283Z,81.23
2018-05-17T17:01:09.510Z,81.36
2018-05-17T17:03:38.102Z,81.52
2018-05-17T17:06:08.810Z,81.39
2018-05-17T17:08:37.118Z,81.93
2018-05-17T17:11:06.277Z,81.74
2018-05-17T17:13:35.153Z,81.87
2018-05-17T17:16:03.459Z,82.10
2018-05-17T17:18:32.497Z,81.57
2018-05-17T17:21:01.182Z,81.37
2018-05-17T17:23:30.311Z,81.58
2018-05-17T17:25:58.625Z,82.80
2018-05-17T17:28:27.017Z,82.62
2018-05-17T17:30:55.436Z,82.57
2018-05-17T17:33:23.869Z,82.36
2018-05-17T17:35:53.265Z,82.46
2018-05-17T17:38:22.445Z,82.20
2018-05-17T17:40:51.139Z,82.85
2018-05-17T17:43:19.662Z,82.65
2018-05-17T17:45:48.813Z,82.02
2018-05-17T17:48:18.330Z,82.46
2018-05-17T17:50:48.274Z,82.32
2018-05-17T17:53:17.276Z,82.17
2018-05-17T17:55:45.887Z,82.27
2018-05-17T17:58:15.606Z,82.70
2018-05-17T18:00:45.456Z,82.74
2018-05-17T18:03:14.134Z,82.95
2018-05-17T18:05:42.549Z,82.60
2018-05-17T18:08:11.236Z,82.46
2018-05-17T18:10:40.037Z,82.72
2018-05-17T18:13:08.402Z,82.90
2018-05-17T18:15:37.496Z,82.88
2018-05-17T18:18:06.179Z,82.65
2018-05-17T18:20:35.547Z,82.94
2018-05-17T18:23:04.586Z,82.88
2018-05-17T18:30:18.351Z,83.08
2018-05-17T18:32:46.719Z,82.97
2018-05-17T18:35:15.368Z,83.07
2018-05-17T18:37:45.214Z,83.18
2018-05-17T18:40:13.791Z,83.13
2018-05-17T18:42:42.152Z,82.94
2018-05-17T18:45:11.508Z,82.51
2018-05-17T18:47:41.790Z,82.71
2018-05-17T18:50:10.631Z,82.54
2018-05-17T18:52:39.480Z,82.72
2018-05-17T18:55:07.927Z,83.27
2018-05-17T18:57:38.252Z,82.94
2018-05-17T19:00:08.919Z,82.87
2018-05-17T19:02:38.433Z,82.57
2018-05-17T19:05:07.547Z,82.63
2018-05-17T19:07:35.847Z,82.71
2018-05-17T19:10:05.099Z,82.70
2018-05-17T19:12:33.422Z,82.53
2018-05-17T19:15:01.753Z,82.51
2018-05-17T19:17:30.999Z,82.50
2018-05-17T19:19:59.573Z,82.41
2018-05-17T19:22:28.583Z,82.41
2018-05-17T19:24:57.241Z,82.82
2018-05-17T19:27:26.738Z,82.78
2018-05-17T19:29:55.739Z,82.76
2018-05-17T19:32:24.402Z,82.60
2018-05-17T19:34:52.753Z,82.94
2018-05-17T19:37:21.737Z,82.89
2018-05-17T19:39:50.446Z,82.98
2018-05-17T19:42:21.206Z,82.74
2018-05-17T19:44:50.344Z,83.22
2018-05-17T19:47:19.294Z,83.23
2018-05-17T19:49:52.170Z,83.17
2018-05-17T19:52:23.444Z,83.09
2018-05-17T19:54:52.894Z,83.17
2018-05-17T19:57:22.154Z,83.64
2018-05-17T19:59:51.539Z,83.64
2018-05-17T20:02:20.535Z,83.59
2018-05-17T20:04:48.878Z,83.45
2018-05-17T20:07:17.972Z,83.22
2018-05-17T20:09:46.526Z,83.38
2018-05-17T20:12:14.887Z,83.15
2018-05-17T20:14:43.676Z,83.31
2018-05-17T20:17:13.035Z,83.58
2018-05-17T20:19:44.264Z,83.84
2018-05-17T20:22:13.309Z,83.69
2018-05-17T20:24:41.627Z,83.88
2018-05-17T20:27:10.418Z,83.67
2018-05-17T20:29:38.919Z,83.66
2018-05-17T20:32:07.297Z,83.44
2018-05-17T20:34:36.698Z,83.40
2018-05-17T20:37:05.040Z,83.68
2018-05-17T20:39:33.892Z,83.29
2018-05-17T20:42:03.840Z,83.19
2018-05-17T20:44:33.355Z,82.98
2018-05-17T20:47:02.133Z,83.40
2018-05-17T20:49:30.639Z,83.28
2018-05-17T20:51:59.947Z,83.29
2018-05-17T20:54:28.611Z,83.06
2018-05-17T20:56:57.033Z,82.78
2018-05-17T20:59:27.074Z,82.98
2018-05-17T21:01:57.260Z,82.45
2018-05-17T21:04:25.892Z,82.50
2018-05-17T21:06:55.130Z,82.86
2018-05-17T21:09:23.542Z,82.79
2018-05-17T21:11:51.863Z,82.28
2018-05-17T21:14:21.413Z,82.55
2018-05-17T21:16:49.809Z,82.65
2018-05-17T21:19:18.148Z,82.60
2018-05-17T21:21:46.521Z,82.46
2018-05-17T21:24:15.258Z,82.40
2018-05-17T21:26:43.576Z,82.57
2018-05-17T21:29:11.951Z,82.34
2018-05-17T21:31:41.099Z,82.46
2018-05-17T21:34:09.586Z,82.36
2018-05-17T21:36:38.258Z,82.13
2018-05-17T21:39:06.594Z,82.24
2018-05-17T21:41:35.877Z,82.11
2018-05-17T21:44:06.029Z,82.09
2018-05-17T21:46:35.845Z,82.09
2018-05-17T21:49:04.327Z,82.06
2018-05-17T21:51:32.857Z,81.85
2018-05-17T21:54:01.234Z,81.51
2018-05-17T21:56:29.894Z,81.77
2018-05-17T21:58:58.274Z,81.90
2018-05-17T22:01:30.660Z,81.48
2018-05-17T22:03:59.355Z,81.36
2018-05-17T22:06:28.575Z,81.39
2018-05-17T22:08:56.965Z,81.64
2018-05-17T22:11:26.956Z,81.19
2018-05-17T22:13:56.072Z,81.23
2018-05-17T22:16:25.852Z,81.45
2018-05-17T22:18:54.790Z,81.52
2018-05-17T22:21:23.934Z,81.94
2018-05-17T22:23:52.248Z,81.57
2018-05-17T22:26:21.131Z,81.99
2018-05-17T22:28:49.501Z,82.12
2018-05-17T22:31:17.865Z,81.93
2018-05-17T22:33:46.505Z,82.46
2018-05-17T22:36:15.569Z,82.51
2018-05-17T22:38:44.829Z,82.52
2018-05-17T22:41:13.746Z,82.44
2018-05-17T22:43:42.670Z,82.43
2018-05-17T22:46:12.801Z,82.24
2018-05-17T22:48:41.875Z,82.31
2018-05-17T22:51:10.900Z,81.97
2018-05-17T22:53:40.112Z,81.78
2018-05-17T22:56:11.575Z,81.89
2018-05-17T22:58:39.904Z,81.87
2018-05-17T23:01:08.235Z,81.77
2018-05-17T23:03:37.471Z,81.54
2018-05-17T23:06:06.702Z,81.21
2018-05-17T23:08:36.970Z,81.22
2018-05-17T23:11:06.160Z,81.02
2018-05-17T23:13:35.159Z,81.63
2018-05-17T23:16:03.992Z,81.75
2018-05-17T23:18:35.623Z,81.67
2018-05-17T23:21:04.566Z,81.70
2018-05-17T23:23:35.240Z,81.50
2018-05-17T23:26:05.247Z,81.79
2018-05-17T23:28:33.548Z,81.91
2018-05-17T23:31:02.483Z,81.86
2018-05-17T23:33:31.712Z,82.09
2018-05-17T23:36:00.548Z,81.95
2018-05-17T23:38:29.562Z,81.94
2018-05-17T23:41:18.192Z,81.75
2018-05-17T23:43:47.281Z,81.93
2018-05-17T23:46:17.394Z,82.11
2018-05-17T23:48:45.741Z,82.09
2018-05-17T23:51:14.783Z,82.21
2018-05-17T23:53:44.052Z,81.90
2018-05-17T23:56:13.253Z,82.00
2018-05-17T23:58:42.066Z,81.91
